Time;durP1;ratioP1;P1;durP2;ratioP2;P2;SDS_P1;SDS_P2;PMS_P1;PMS_P2;Temp;Humidity;BMP_temperature;BMP_pressure;BME280_temperature;BME280_humidity;BME280_pressure;Samples;Min_cycle;Max_cycle;Signal;HPM_P1;HPM_P2
2023/04/16 00:02:20;;;;;;;80.43;29.40;;;;;;;;;;5060093;28;20045;-62
2023/04/16 00:04:46;;;;;;;84.20;29.67;;;;;;;;;;5051210;28;20044;-62
2023/04/16 00:07:12;;;;;;;75.37;28.77;;;;;;;;;;5057467;28;20051;-62
2023/04/16 00:09:39;;;;;;;83.60;31.67;;;;;;;;;;5071057;28;20040;-61
2023/04/16 00:12:05;;;;;;;100.03;31.23;;;;;;;;;;5071466;28;20040;-62
2023/04/16 00:14:31;;;;;;;88.07;32.33;;;;;;;;;;5071003;28;20447;-62
2023/04/16 00:16:58;;;;;;;112.87;36.43;;;;;;;;;;5051587;28;20049;-62
2023/04/16 00:19:24;;;;;;;83.97;30.03;;;;;;;;;;5062053;28;20059;-62
2023/04/16 00:21:50;;;;;;;74.07;28.93;;;;;;;;;;5051601;28;20048;-62
2023/04/16 00:24:16;;;;;;;119.23;34.90;;;;;;;;;;5051164;28;20396;-62
2023/04/16 00:26:44;;;;;;;97.97;31.77;;;;;;;;;;5070772;28;20049;-63
2023/04/16 00:29:10;;;;;;;104.90;34.70;;;;;;;;;;5071336;28;20060;-63
2023/04/16 00:31:36;;;;;;;86.10;31.10;;;;;;;;;;5071019;28;20123;-62
2023/04/16 00:34:03;;;;;;;115.33;34.07;;;;;;;;;;5070414;28;20036;-62
2023/04/16 00:36:29;;;;;;;89.10;30.60;;;;;;;;;;5070476;28;20052;-62
2023/04/16 00:38:56;;;;;;;116.73;33.23;;;;;;;;;;5070880;28;21054;-62
2023/04/16 00:41:22;;;;;;;98.97;33.47;;;;;;;;;;5070481;28;20490;-63
2023/04/16 00:43:48;;;;;;;97.80;35.00;;;;;;;;;;5069957;28;20045;-62
2023/04/16 00:46:16;;;;;;;98.17;34.57;;;;;;;;;;5070639;28;20041;-62
2023/04/16 00:48:43;;;;;;;93.43;33.50;;;;;;;;;;5069853;28;20071;-62
2023/04/16 00:51:10;;;;;;;102.03;34.17;;;;;;;;;;5071061;28;20048;-63
2023/04/16 00:53:36;;;;;;;99.33;33.77;;;;;;;;;;5070635;28;20044;-62
2023/04/16 00:56:03;;;;;;;107.33;36.87;;;;;;;;;;5069657;28;20793;-60
2023/04/16 00:58:30;;;;;;;92.87;33.20;;;;;;;;;;5056243;28;20057;-61
2023/04/16 01:00:56;;;;;;;106.23;35.57;;;;;;;;;;5050449;28;20047;-61
2023/04/16 01:03:22;;;;;;;98.37;34.20;;;;;;;;;;5056014;28;20517;-61
2023/04/16 01:05:49;;;;;;;89.40;34.60;;;;;;;;;;5070498;28;20044;-61
2023/04/16 01:08:16;;;;;;;94.83;34.73;;;;;;;;;;5059940;28;20091;-61
2023/04/16 01:10:42;;;;;;;85.63;33.77;;;;;;;;;;5050232;28;20559;-61
2023/04/16 01:13:08;;;;;;;103.77;35.73;;;;;;;;;;5063996;28;20045;-60
2023/04/16 01:15:34;;;;;;;96.77;34.90;;;;;;;;;;5069379;28;20044;-60
2023/04/16 01:18:01;;;;;;;101.63;34.77;;;;;;;;;;5068992;28;20040;-61
2023/04/16 01:20:27;;;;;;;96.53;33.70;;;;;;;;;;5058940;28;20052;-61
2023/04/16 01:22:53;;;;;;;110.87;36.93;;;;;;;;;;5051571;28;20139;-61
2023/04/16 01:25:19;;;;;;;108.83;38.90;;;;;;;;;;5049466;28;20482;-60
2023/04/16 01:27:48;;;;;;;109.03;36.67;;;;;;;;;;5049648;28;20098;-60
2023/04/16 01:30:14;;;;;;;95.60;33.50;;;;;;;;;;5056187;28;20049;-61
2023/04/16 01:32:40;;;;;;;97.83;34.83;;;;;;;;;;5069988;28;20050;-60
2023/04/16 01:35:06;;;;;;;101.47;33.43;;;;;;;;;;5053787;28;20045;-60
2023/04/16 01:37:33;;;;;;;100.33;34.43;;;;;;;;;;5051833;28;20071;-60
2023/04/16 01:39:59;;;;;;;96.10;35.03;;;;;;;;;;5069157;28;20040;-61
2023/04/16 01:42:25;;;;;;;105.93;36.80;;;;;;;;;;5069018;28;20735;-61
2023/04/16 01:44:51;;;;;;;94.57;37.10;;;;;;;;;;5068572;28;20048;-61
2023/04/16 01:47:17;;;;;;;102.83;33.70;;;;;;;;;;5049305;28;20071;-61
2023/04/16 01:49:44;;;;;;;114.50;36.77;;;;;;;;;;5049085;28;20045;-61
2023/04/16 01:52:10;;;;;;;115.20;35.63;;;;;;;;;;5061733;28;20048;-61
2023/04/16 01:54:36;;;;;;;117.57;36.70;;;;;;;;;;5054990;28;20490;-61
2023/04/16 01:57:02;;;;;;;122.30;36.63;;;;;;;;;;5059118;28;20099;-61
2023/04/16 01:59:28;;;;;;;110.77;37.03;;;;;;;;;;5066805;28;20044;-61
2023/04/16 02:01:54;;;;;;;116.30;35.53;;;;;;;;;;5068481;28;20048;-61
2023/04/16 02:04:20;;;;;;;112.77;35.10;;;;;;;;;;5067895;28;20051;-61
2023/04/16 02:06:46;;;;;;;131.37;37.60;;;;;;;;;;5068975;28;20037;-61
2023/04/16 02:09:13;;;;;;;124.60;35.37;;;;;;;;;;5068881;28;20052;-61
2023/04/16 02:11:39;;;;;;;112.63;37.13;;;;;;;;;;5068467;28;20059;-61
2023/04/16 02:14:05;;;;;;;130.93;37.33;;;;;;;;;;5059422;28;20040;-61
2023/04/16 02:16:31;;;;;;;108.63;37.27;;;;;;;;;;5048768;28;20060;-62
2023/04/16 02:18:57;;;;;;;134.03;40.40;;;;;;;;;;5048920;28;20049;-61
2023/04/16 02:21:23;;;;;;;107.37;36.17;;;;;;;;;;5063287;28;20044;-61
2023/04/16 02:23:50;;;;;;;102.93;35.60;;;;;;;;;;5068701;28;20040;-62
2023/04/16 02:26:16;;;;;;;102.77;37.23;;;;;;;;;;5057678;28;20052;-61
2023/04/16 02:28:42;;;;;;;120.23;38.57;;;;;;;;;;5051851;28;20137;-61
2023/04/16 02:31:08;;;;;;;105.70;37.50;;;;;;;;;;5067994;28;20075;-61
2023/04/16 02:33:35;;;;;;;104.33;37.63;;;;;;;;;;5063533;28;20143;-61
2023/04/16 02:36:01;;;;;;;100.80;36.47;;;;;;;;;;5055770;28;20113;-61
2023/04/16 02:38:27;;;;;;;103.87;37.93;;;;;;;;;;5068220;28;20044;-61
2023/04/16 02:40:53;;;;;;;107.37;37.53;;;;;;;;;;5068596;28;20070;-62
2023/04/16 02:43:19;;;;;;;91.33;35.43;;;;;;;;;;5064007;28;20051;-61
2023/04/16 02:45:45;;;;;;;91.13;35.13;;;;;;;;;;5048306;28;20557;-61
2023/04/16 02:48:11;;;;;;;94.70;35.23;;;;;;;;;;5059189;28;20067;-62
2023/04/16 02:50:37;;;;;;;90.97;35.00;;;;;;;;;;5068292;28;20490;-61
2023/04/16 02:53:03;;;;;;;98.40;35.53;;;;;;;;;;5067918;28;20048;-61
2023/04/16 02:55:30;;;;;;;95.77;34.77;;;;;;;;;;5048572;28;20045;-61
2023/04/16 02:57:56;;;;;;;89.33;35.13;;;;;;;;;;5047924;28;20068;-62
2023/04/16 03:00:22;;;;;;;84.70;35.50;;;;;;;;;;5048685;28;20049;-62
2023/04/16 03:02:48;;;;;;;86.50;37.17;;;;;;;;;;5068564;28;20088;-61
2023/04/16 03:05:14;;;;;;;86.27;35.30;;;;;;;;;;5065645;28;20560;-63
2023/04/16 03:07:40;;;;;;;76.57;35.33;;;;;;;;;;5052164;28;20049;-63
2023/04/16 03:10:06;;;;;;;75.23;33.10;;;;;;;;;;5070698;28;20546;-62
2023/04/16 03:12:32;;;;;;;70.23;32.07;;;;;;;;;;5072310;28;20044;-62
2023/04/16 03:14:59;;;;;;;79.03;34.50;;;;;;;;;;5071539;28;20040;-62
2023/04/16 03:17:25;;;;;;;71.37;32.57;;;;;;;;;;5070345;28;20151;-62
2023/04/16 03:19:51;;;;;;;74.80;33.90;;;;;;;;;;5072252;28;20805;-62
2023/04/16 03:22:17;;;;;;;87.83;34.23;;;;;;;;;;5072140;28;20140;-62
2023/04/16 03:24:43;;;;;;;76.00;33.07;;;;;;;;;;5071157;28;20087;-62
2023/04/16 03:27:09;;;;;;;94.17;34.83;;;;;;;;;;5072368;28;20044;-62
2023/04/16 03:29:39;;;;;;;83.07;34.47;;;;;;;;;;5071705;28;20181;-62
2023/04/16 03:32:05;;;;;;;81.00;34.17;;;;;;;;;;5070888;28;20045;-62
2023/04/16 03:34:31;;;;;;;102.07;38.07;;;;;;;;;;5056942;28;20453;-62
2023/04/16 03:36:57;;;;;;;80.07;33.93;;;;;;;;;;5053045;28;20052;-62
2023/04/16 03:39:23;;;;;;;88.13;35.43;;;;;;;;;;5071395;28;20063;-62
2023/04/16 03:41:49;;;;;;;88.00;33.10;;;;;;;;;;5070522;28;20054;-62
2023/04/16 03:44:15;;;;;;;73.63;33.17;;;;;;;;;;5070720;28;20049;-62
2023/04/16 03:46:42;;;;;;;73.00;32.77;;;;;;;;;;5071344;28;20090;-62
2023/04/16 03:49:08;;;;;;;76.13;35.10;;;;;;;;;;5071949;28;20048;-62
2023/04/16 03:51:34;;;;;;;73.53;34.20;;;;;;;;;;5068564;28;20070;-62
2023/04/16 03:54:00;;;;;;;86.67;33.63;;;;;;;;;;5054854;28;20071;-63
2023/04/16 03:56:26;;;;;;;78.37;33.80;;;;;;;;;;5071504;28;20063;-62
2023/04/16 03:58:52;;;;;;;91.33;36.57;;;;;;;;;;5071710;28;20036;-62
2023/04/16 04:01:18;;;;;;;73.57;32.67;;;;;;;;;;5071455;28;20399;-62
2023/04/16 04:03:44;;;;;;;80.83;35.00;;;;;;;;;;5060152;28;20106;-62
2023/04/16 04:06:10;;;;;;;74.13;33.60;;;;;;;;;;5057001;28;20056;-62
2023/04/16 04:08:36;;;;;;;71.63;33.27;;;;;;;;;;5051308;28;20045;-62
2023/04/16 04:11:02;;;;;;;68.07;32.30;;;;;;;;;;5051163;28;20052;-63
2023/04/16 04:13:29;;;;;;;72.47;33.93;;;;;;;;;;5059695;28;20045;-62
2023/04/16 04:15:55;;;;;;;88.10;35.17;;;;;;;;;;5051421;28;20110;-62
2023/04/16 04:18:21;;;;;;;67.30;32.93;;;;;;;;;;5054812;28;20041;-62
2023/04/16 04:20:47;;;;;;;69.53;32.60;;;;;;;;;;5071273;28;20059;-62
2023/04/16 04:23:13;;;;;;;71.83;34.23;;;;;;;;;;5065555;28;20045;-62
2023/04/16 04:25:39;;;;;;;73.80;35.27;;;;;;;;;;5056214;28;20105;-62
2023/04/16 04:28:05;;;;;;;84.93;34.67;;;;;;;;;;5070988;28;20085;-62
2023/04/16 04:30:31;;;;;;;78.37;34.87;;;;;;;;;;5070912;28;20412;-62
2023/04/16 04:32:57;;;;;;;81.50;35.47;;;;;;;;;;5067744;28;20140;-62
2023/04/16 04:35:23;;;;;;;83.87;36.07;;;;;;;;;;5051287;28;21183;-62
2023/04/16 04:37:49;;;;;;;69.53;32.47;;;;;;;;;;5050890;28;20400;-63
2023/04/16 04:40:16;;;;;;;85.77;34.93;;;;;;;;;;5052368;28;20098;-62
2023/04/16 04:42:42;;;;;;;87.67;35.17;;;;;;;;;;5069535;28;20044;-62
2023/04/16 04:45:08;;;;;;;84.60;35.37;;;;;;;;;;5050188;28;20099;-62
2023/04/16 04:47:34;;;;;;;77.40;35.70;;;;;;;;;;5050645;28;20091;-62
2023/04/16 04:50:00;;;;;;;81.10;36.53;;;;;;;;;;5050547;28;20098;-62
2023/04/16 04:52:26;;;;;;;79.47;32.57;;;;;;;;;;5051424;28;20067;-62
2023/04/16 04:54:52;;;;;;;71.13;33.70;;;;;;;;;;5051031;28;20470;-62
2023/04/16 04:57:19;;;;;;;80.73;35.13;;;;;;;;;;5054252;28;20426;-62
2023/04/16 04:59:45;;;;;;;66.43;32.13;;;;;;;;;;5070147;28;20041;-62
2023/04/16 05:02:11;;;;;;;76.13;35.07;;;;;;;;;;5070454;28;20082;-62
2023/04/16 05:04:37;;;;;;;71.50;33.07;;;;;;;;;;5055711;28;20044;-63
2023/04/16 05:07:03;;;;;;;68.33;33.90;;;;;;;;;;5069889;28;20059;-62
2023/04/16 05:09:29;;;;;;;75.27;35.67;;;;;;;;;;5069939;28;20041;-62
2023/04/16 05:11:56;;;;;;;70.63;33.27;;;;;;;;;;5069469;28;20106;-62
2023/04/16 05:14:22;;;;;;;67.40;34.67;;;;;;;;;;5069348;28;20060;-63
2023/04/16 05:16:48;;;;;;;69.43;34.67;;;;;;;;;;5069474;28;20090;-62
2023/04/16 05:19:14;;;;;;;65.70;32.63;;;;;;;;;;5069413;28;20045;-62
2023/04/16 05:21:40;;;;;;;73.00;35.30;;;;;;;;;;5068360;28;20044;-62
2023/04/16 05:24:07;;;;;;;76.47;34.43;;;;;;;;;;5069071;28;20067;-62
2023/04/16 05:26:33;;;;;;;77.00;33.20;;;;;;;;;;5068359;28;20127;-62
2023/04/16 05:28:59;;;;;;;70.03;33.47;;;;;;;;;;5060182;28;20063;-62
2023/04/16 05:31:25;;;;;;;75.73;35.20;;;;;;;;;;5069191;28;20090;-62
2023/04/16 05:33:51;;;;;;;72.17;33.60;;;;;;;;;;5060438;28;20079;-62
2023/04/16 05:36:17;;;;;;;69.20;32.67;;;;;;;;;;5060227;28;20094;-62
2023/04/16 05:38:43;;;;;;;70.07;34.73;;;;;;;;;;5069204;28;20052;-62
2023/04/16 05:41:09;;;;;;;80.33;35.60;;;;;;;;;;5069673;28;20050;-62
2023/04/16 05:43:35;;;;;;;65.20;31.50;;;;;;;;;;5063519;28;20045;-62
2023/04/16 05:46:01;;;;;;;71.40;33.83;;;;;;;;;;5048664;28;20459;-61
2023/04/16 05:48:27;;;;;;;76.33;34.77;;;;;;;;;;5049175;28;20049;-62
2023/04/16 05:50:53;;;;;;;75.03;31.70;;;;;;;;;;5059772;28;20037;-62
2023/04/16 05:53:20;;;;;;;72.80;35.10;;;;;;;;;;5051216;28;20087;-62
2023/04/16 05:55:46;;;;;;;68.17;34.23;;;;;;;;;;5049169;28;20492;-62
2023/04/16 05:58:12;;;;;;;73.97;34.63;;;;;;;;;;5049389;28;20049;-61
2023/04/16 06:00:39;;;;;;;66.00;31.90;;;;;;;;;;5063533;28;20862;-62
2023/04/16 06:03:05;;;;;;;82.77;35.43;;;;;;;;;;5063964;28;20827;-62
2023/04/16 06:05:31;;;;;;;78.70;33.77;;;;;;;;;;5049974;28;20053;-62
2023/04/16 06:07:57;;;;;;;75.40;33.20;;;;;;;;;;5051881;28;20106;-63
2023/04/16 06:10:23;;;;;;;69.70;32.80;;;;;;;;;;5059193;28;20091;-62
2023/04/16 06:12:49;;;;;;;62.10;32.57;;;;;;;;;;5059287;28;20040;-61
2023/04/16 06:15:15;;;;;;;64.10;31.23;;;;;;;;;;5060371;28;20044;-62
2023/04/16 06:17:41;;;;;;;65.73;31.03;;;;;;;;;;5060295;28;20048;-62
2023/04/16 06:20:07;;;;;;;59.23;31.20;;;;;;;;;;5057983;28;20051;-61
2023/04/16 06:22:33;;;;;;;60.40;30.30;;;;;;;;;;5058967;28;20052;-61
2023/04/16 06:24:59;;;;;;;62.00;29.67;;;;;;;;;;5056699;28;20565;-61
2023/04/16 06:27:26;;;;;;;59.47;29.80;;;;;;;;;;5056709;28;20037;-62
2023/04/16 06:29:52;;;;;;;47.63;27.10;;;;;;;;;;5055862;28;20413;-62
2023/04/16 06:32:18;;;;;;;52.90;27.57;;;;;;;;;;5059758;28;20411;-62
2023/04/16 06:34:44;;;;;;;49.33;27.83;;;;;;;;;;5049984;28;20049;-62
2023/04/16 06:37:10;;;;;;;53.03;27.90;;;;;;;;;;5047061;28;20053;-61
2023/04/16 06:39:36;;;;;;;46.37;27.37;;;;;;;;;;5056457;28;20509;-61
2023/04/16 06:42:02;;;;;;;47.27;28.27;;;;;;;;;;5056626;28;20418;-62
2023/04/16 06:44:29;;;;;;;48.87;27.93;;;;;;;;;;5055316;28;20041;-62
2023/04/16 06:46:55;;;;;;;51.00;29.60;;;;;;;;;;5055774;28;20037;-63
2023/04/16 06:49:21;;;;;;;48.47;28.43;;;;;;;;;;5055973;28;20060;-62
2023/04/16 06:51:47;;;;;;;50.17;27.13;;;;;;;;;;5053180;28;20045;-62
2023/04/16 06:54:13;;;;;;;42.27;25.07;;;;;;;;;;5058247;28;20041;-61
2023/04/16 06:56:39;;;;;;;43.57;25.70;;;;;;;;;;5055894;28;20076;-61
2023/04/16 06:59:05;;;;;;;37.33;23.63;;;;;;;;;;5055150;28;20571;-61
2023/04/16 07:01:31;;;;;;;39.43;24.10;;;;;;;;;;5050848;28;20041;-62
2023/04/16 07:03:57;;;;;;;40.03;24.13;;;;;;;;;;5058241;28;20041;-62
2023/04/16 07:06:23;;;;;;;39.00;23.43;;;;;;;;;;5057043;28;20043;-62
2023/04/16 07:08:49;;;;;;;38.90;24.30;;;;;;;;;;5057127;28;20120;-62
2023/04/16 07:11:16;;;;;;;45.97;25.27;;;;;;;;;;5050129;28;20845;-62
2023/04/16 07:13:42;;;;;;;34.40;22.67;;;;;;;;;;5052887;28;20841;-62
2023/04/16 07:16:08;;;;;;;34.77;20.43;;;;;;;;;;5054231;28;20124;-62
2023/04/16 07:18:34;;;;;;;41.00;22.67;;;;;;;;;;5056048;28;20048;-62
2023/04/16 07:21:00;;;;;;;38.60;22.70;;;;;;;;;;5053633;28;20036;-62
2023/04/16 07:23:26;;;;;;;34.10;21.23;;;;;;;;;;5057919;28;20512;-62
2023/04/16 07:25:53;;;;;;;32.03;21.07;;;;;;;;;;5056838;28;20577;-62
2023/04/16 07:28:19;;;;;;;35.83;20.53;;;;;;;;;;5066077;28;20053;-62
2023/04/16 07:30:45;;;;;;;30.63;20.03;;;;;;;;;;5057214;28;20052;-62
2023/04/16 07:33:11;;;;;;;35.33;21.63;;;;;;;;;;5056604;28;20124;-62
2023/04/16 07:35:37;;;;;;;35.07;21.77;;;;;;;;;;5066509;28;20114;-62
2023/04/16 07:38:03;;;;;;;33.80;21.40;;;;;;;;;;5066539;28;20041;-62
2023/04/16 07:40:29;;;;;;;31.20;19.70;;;;;;;;;;5065676;28;20036;-62
2023/04/16 07:42:56;;;;;;;30.37;20.20;;;;;;;;;;5067689;28;20218;-62
2023/04/16 07:45:23;;;;;;;29.07;18.83;;;;;;;;;;5067397;28;20090;-62
2023/04/16 07:47:49;;;;;;;27.67;18.47;;;;;;;;;;5054231;28;20793;-62
2023/04/16 07:50:15;;;;;;;37.67;19.40;;;;;;;;;;5057268;28;20452;-62
2023/04/16 07:52:42;;;;;;;35.43;18.53;;;;;;;;;;5057893;28;20067;-61
2023/04/16 07:55:09;;;;;;;31.30;19.90;;;;;;;;;;5066296;28;20045;-62
2023/04/16 07:57:35;;;;;;;33.63;19.77;;;;;;;;;;5071619;28;20044;-62
2023/04/16 08:00:03;;;;;;;32.77;19.67;;;;;;;;;;5068755;28;20043;-62
2023/04/16 08:02:30;;;;;;;34.57;19.23;;;;;;;;;;5063748;28;20608;-62
2023/04/16 08:04:56;;;;;;;29.77;17.27;;;;;;;;;;5069708;28;21100;-62
2023/04/16 08:07:22;;;;;;;33.43;17.27;;;;;;;;;;5070536;28;20049;-61
2023/04/16 08:09:49;;;;;;;28.93;17.47;;;;;;;;;;5059659;28;20041;-62
2023/04/16 08:12:16;;;;;;;27.30;16.97;;;;;;;;;;5059902;28;20036;-62
2023/04/16 08:14:43;;;;;;;23.80;15.83;;;;;;;;;;5062085;28;20041;-62
2023/04/16 08:17:10;;;;;;;27.27;16.67;;;;;;;;;;5057353;28;20053;-62
2023/04/16 08:19:36;;;;;;;26.77;16.53;;;;;;;;;;5053813;28;20055;-61
2023/04/16 08:22:05;;;;;;;29.90;17.10;;;;;;;;;;5058581;28;20127;-62
2023/04/16 08:24:31;;;;;;;31.90;17.37;;;;;;;;;;5058285;28;20042;-62
2023/04/16 08:26:57;;;;;;;29.93;16.73;;;;;;;;;;5060370;28;20549;-62
2023/04/16 08:29:25;;;;;;;26.63;15.13;;;;;;;;;;5059374;28;20710;-62
2023/04/16 08:31:51;;;;;;;25.37;15.07;;;;;;;;;;5055532;28;20569;-62
2023/04/16 08:34:17;;;;;;;26.47;14.67;;;;;;;;;;5058025;28;20045;-62
2023/04/16 08:36:44;;;;;;;31.37;15.57;;;;;;;;;;5060497;28;20041;-62
2023/04/16 08:39:10;;;;;;;26.47;14.67;;;;;;;;;;5070564;28;20036;-61
2023/04/16 08:41:38;;;;;;;30.00;14.90;;;;;;;;;;5068253;28;20090;-61
2023/04/16 08:44:07;;;;;;;28.97;14.20;;;;;;;;;;5059830;28;20040;-61
2023/04/16 08:46:36;;;;;;;27.47;15.73;;;;;;;;;;5060104;28;20043;-61
2023/04/16 08:49:04;;;;;;;27.17;14.60;;;;;;;;;;5069624;28;20087;-60
2023/04/16 08:51:33;;;;;;;26.27;15.93;;;;;;;;;;5070296;28;20056;-61
2023/04/16 08:54:04;;;;;;;31.63;16.67;;;;;;;;;;5067678;28;20051;-61
2023/04/16 08:56:31;;;;;;;36.10;15.63;;;;;;;;;;5060872;28;20519;-61
2023/04/16 08:58:59;;;;;;;27.70;16.33;;;;;;;;;;5048425;28;20090;-61
2023/04/16 09:01:26;;;;;;;27.83;16.00;;;;;;;;;;5053157;28;20494;-61
2023/04/16 09:03:52;;;;;;;28.33;15.33;;;;;;;;;;5068455;28;20090;-61
2023/04/16 09:06:19;;;;;;;29.53;15.80;;;;;;;;;;5053181;28;20045;-61
2023/04/16 09:08:45;;;;;;;28.63;15.43;;;;;;;;;;5048779;28;20045;-62
2023/04/16 09:11:13;;;;;;;26.07;14.67;;;;;;;;;;5048818;28;20045;-61
2023/04/16 09:13:39;;;;;;;24.20;14.17;;;;;;;;;;5050170;28;20060;-61
2023/04/16 09:16:08;;;;;;;26.17;13.90;;;;;;;;;;5050020;28;20423;-62
2023/04/16 09:18:34;;;;;;;26.13;12.90;;;;;;;;;;5050218;28;20522;-61
2023/04/16 09:21:00;;;;;;;24.40;12.63;;;;;;;;;;5057232;28;20495;-62
2023/04/16 09:23:26;;;;;;;25.90;13.07;;;;;;;;;;5049911;28;20667;-62
2023/04/16 09:25:52;;;;;;;21.00;12.53;;;;;;;;;;5049987;28;20045;-62
2023/04/16 09:28:38;;;;;;;21.67;12.53;;;;;;;;;;5049423;28;20076;-61
2023/04/16 09:31:10;;;;;;;16.97;11.40;;;;;;;;;;5049868;28;20045;-62
2023/04/16 09:33:36;;;;;;;22.27;13.07;;;;;;;;;;5049437;28;20058;-62
2023/04/16 09:36:02;;;;;;;20.67;13.40;;;;;;;;;;5049854;28;20071;-61
2023/04/16 09:38:45;;;;;;;20.90;12.67;;;;;;;;;;5056857;28;20530;-62
2023/04/16 09:41:11;;;;;;;19.25;12.90;;;;;;;;;;5059405;28;21437;-62
2023/04/16 09:43:38;;;;;;;26.13;13.53;;;;;;;;;;5055432;28;20037;-62
2023/04/16 09:46:04;;;;;;;21.37;12.20;;;;;;;;;;5057496;28;20052;-62
2023/04/16 09:48:31;;;;;;;20.90;13.37;;;;;;;;;;5059557;28;20427;-62
2023/04/16 09:50:57;;;;;;;23.03;13.03;;;;;;;;;;5049779;28;20055;-62
2023/04/16 09:53:30;;;;;;;19.40;12.63;;;;;;;;;;5049783;28;20052;-62
2023/04/16 09:56:00;;;;;;;19.25;12.30;;;;;;;;;;5057664;28;20452;-62
2023/04/16 09:58:26;;;;;;;18.17;13.07;;;;;;;;;;5067875;28;20084;-62
2023/04/16 10:01:02;;;;;;;17.53;13.07;;;;;;;;;;5068328;28;20040;-62
2023/04/16 10:03:30;;;;;;;19.80;12.13;;;;;;;;;;5068860;28;20048;-62
2023/04/16 10:05:56;;;;;;;17.73;11.50;;;;;;;;;;5067753;28;20099;-62
2023/04/16 10:08:23;;;;;;;17.60;12.50;;;;;;;;;;5067728;28;20041;-62
2023/04/16 10:10:49;;;;;;;18.73;12.17;;;;;;;;;;5065109;28;20565;-62
2023/04/16 10:13:16;;;;;;;19.23;12.57;;;;;;;;;;5046263;28;20091;-61
2023/04/16 10:15:42;;;;;;;21.20;12.07;;;;;;;;;;5046128;28;20155;-61
2023/04/16 10:18:09;;;;;;;18.37;12.13;;;;;;;;;;5045934;28;20148;-62
2023/04/16 10:20:36;;;;;;;24.07;13.03;;;;;;;;;;5046589;28;20047;-61
2023/04/16 10:23:02;;;;;;;16.80;11.47;;;;;;;;;;5046897;28;20049;-61
2023/04/16 10:25:29;;;;;;;18.80;11.87;;;;;;;;;;5048870;28;20049;-61
2023/04/16 10:27:56;;;;;;;20.77;13.23;;;;;;;;;;5049048;28;20056;-62
2023/04/16 10:30:23;;;;;;;19.93;12.10;;;;;;;;;;5048503;28;20060;-61
2023/04/16 10:32:49;;;;;;;23.50;12.50;;;;;;;;;;5049266;28;20051;-61
2023/04/16 10:35:19;;;;;;;20.33;12.00;;;;;;;;;;5048917;28;20048;-62
2023/04/16 10:37:46;;;;;;;18.60;12.53;;;;;;;;;;5048182;28;20068;-62
2023/04/16 10:40:25;;;;;;;18.13;11.87;;;;;;;;;;5048605;28;20051;-62
2023/04/16 10:42:55;;;;;;;17.63;11.50;;;;;;;;;;5067663;28;20056;-62
2023/04/16 10:45:26;;;;;;;16.73;11.43;;;;;;;;;;5067467;28;20379;-62
2023/04/16 10:47:56;;;;;;;19.60;12.13;;;;;;;;;;5068381;28;20048;-61
2023/04/16 10:50:22;;;;;;;21.67;12.30;;;;;;;;;;5068626;28;20383;-62
2023/04/16 10:52:48;;;;;;;19.87;11.83;;;;;;;;;;5068642;28;20666;-63
2023/04/16 10:55:17;;;;;;;21.17;12.43;;;;;;;;;;5068784;28;20074;-62
2023/04/16 10:57:43;;;;;;;19.17;11.47;;;;;;;;;;5068318;28;20428;-62
2023/04/16 11:00:30;;;;;;;16.70;11.77;;;;;;;;;;5068240;28;20045;-62
2023/04/16 11:02:56;;;;;;;12.73;9.80;;;;;;;;;;5050470;28;20049;-62
2023/04/16 11:05:24;;;;;;;18.50;10.70;;;;;;;;;;5048603;28;20442;-62
2023/04/16 11:07:50;;;;;;;16.00;10.83;;;;;;;;;;5048073;28;20079;-61
2023/04/16 11:10:16;;;;;;;15.63;11.27;;;;;;;;;;5048371;28;20056;-62
2023/04/16 11:12:43;;;;;;;14.73;10.70;;;;;;;;;;5048354;28;20048;-62
2023/04/16 11:15:09;;;;;;;14.27;9.93;;;;;;;;;;5048299;28;20165;-63
2023/04/16 11:17:38;;;;;;;17.83;10.77;;;;;;;;;;5048102;28;20550;-62
2023/04/16 11:20:05;;;;;;;16.63;10.60;;;;;;;;;;5048332;28;20526;-62
2023/04/16 11:22:35;;;;;;;15.73;10.70;;;;;;;;;;5056329;28;20041;-62
2023/04/16 11:25:01;;;;;;;17.13;11.03;;;;;;;;;;5067269;28;20359;-62
2023/04/16 11:27:27;;;;;;;18.63;10.87;;;;;;;;;;5071218;28;20037;-62
2023/04/16 11:30:12;;;;;;;18.67;10.23;;;;;;;;;;5071625;28;20410;-62
2023/04/16 11:32:38;;;;;;;15.30;11.30;;;;;;;;;;5056629;28;20045;-62
2023/04/16 11:35:12;;;;;;;19.13;11.73;;;;;;;;;;5070405;28;20044;-62
2023/04/16 11:37:38;;;;;;;17.87;10.93;;;;;;;;;;5072001;28;20052;-62
2023/04/16 11:40:05;;;;;;;18.47;10.67;;;;;;;;;;5071880;28;20056;-61
2023/04/16 11:42:32;;;;;;;15.40;11.37;;;;;;;;;;5071883;28;20080;-62
2023/04/16 11:44:59;;;;;;;17.93;10.07;;;;;;;;;;5071960;28;20105;-62
2023/04/16 11:47:26;;;;;;;13.93;9.87;;;;;;;;;;5072013;28;20041;-61
2023/04/16 11:49:52;;;;;;;15.27;10.93;;;;;;;;;;5071861;28;20698;-62
2023/04/16 11:52:31;;;;;;;13.37;10.10;;;;;;;;;;5071739;28;20045;-62
2023/04/16 11:54:58;;;;;;;19.10;11.23;;;;;;;;;;5071874;28;20049;-61
2023/04/16 11:57:30;;;;;;;18.47;10.70;;;;;;;;;;5071630;28;20083;-62
2023/04/16 11:59:57;;;;;;;17.05;10.25;;;;;;;;;;5071772;28;20049;-62
2023/04/16 12:02:36;;;;;;;14.20;9.90;;;;;;;;;;5056755;28;20104;-62
2023/04/16 12:05:03;;;;;;;15.27;10.57;;;;;;;;;;5051875;28;20110;-62
2023/04/16 12:07:29;;;;;;;15.10;9.83;;;;;;;;;;5051718;28;20045;-62
2023/04/16 12:10:05;;;;;;;16.33;10.60;;;;;;;;;;5051438;28;20084;-62
2023/04/16 12:12:32;;;;;;;21.13;11.37;;;;;;;;;;5051660;28;20159;-62
2023/04/16 12:14:58;;;;;;;13.53;9.57;;;;;;;;;;5062110;28;20049;-62
2023/04/16 12:17:25;;;;;;;14.70;9.70;;;;;;;;;;5051260;28;20060;-62
2023/04/16 12:19:52;;;;;;;16.80;9.70;;;;;;;;;;5051569;28;20045;-61
2023/04/16 12:22:26;;;;;;;16.43;10.70;;;;;;;;;;5051377;28;20049;-62
2023/04/16 12:24:55;;;;;;;14.87;10.20;;;;;;;;;;5051431;28;20160;-62
2023/04/16 12:27:22;;;;;;;18.00;10.17;;;;;;;;;;5051401;28;20045;-61
2023/04/16 12:30:02;;;;;;;18.80;10.20;;;;;;;;;;5050816;28;20499;-61
2023/04/16 12:32:28;;;;;;;22.77;11.20;;;;;;;;;;5066833;28;20048;-61
2023/04/16 12:34:54;;;;;;;15.90;10.80;;;;;;;;;;5070812;28;20067;-61
2023/04/16 12:37:20;;;;;;;17.87;10.33;;;;;;;;;;5070582;28;20422;-61
2023/04/16 12:39:46;;;;;;;21.43;11.80;;;;;;;;;;5070652;28;20040;-61
2023/04/16 12:42:13;;;;;;;21.17;12.07;;;;;;;;;;5071326;28;20048;-61
2023/04/16 12:44:39;;;;;;;20.07;10.77;;;;;;;;;;5071188;28;20083;-60
2023/04/16 12:47:05;;;;;;;18.47;10.57;;;;;;;;;;5070857;28;20155;-62
2023/04/16 12:49:32;;;;;;;18.70;11.23;;;;;;;;;;5053433;28;20037;-62
2023/04/16 12:51:58;;;;;;;17.47;10.33;;;;;;;;;;5057458;28;20556;-62
2023/04/16 12:54:27;;;;;;;24.90;11.70;;;;;;;;;;5059024;28;20045;-62
2023/04/16 12:56:53;;;;;;;20.67;9.77;;;;;;;;;;5055609;28;20049;-62
2023/04/16 12:59:19;;;;;;;16.33;10.60;;;;;;;;;;5061867;28;20521;-62
2023/04/16 13:01:45;;;;;;;17.40;10.37;;;;;;;;;;5062659;28;20447;-62
2023/04/16 13:04:12;;;;;;;17.83;10.37;;;;;;;;;;5056501;28;20418;-62
2023/04/16 13:06:38;;;;;;;15.97;9.80;;;;;;;;;;5058274;28;20059;-62
2023/04/16 13:09:04;;;;;;;17.67;9.80;;;;;;;;;;5059449;28;20072;-62
2023/04/16 13:11:30;;;;;;;18.93;9.70;;;;;;;;;;5058183;28;20056;-62
2023/04/16 13:13:57;;;;;;;17.40;10.37;;;;;;;;;;5057335;28;20044;-61
2023/04/16 13:16:23;;;;;;;18.80;10.20;;;;;;;;;;5058221;28;20040;-61
2023/04/16 13:18:49;;;;;;;23.10;11.23;;;;;;;;;;5059957;28;20453;-62
2023/04/16 13:21:16;;;;;;;15.87;10.47;;;;;;;;;;5059953;28;20041;-61
2023/04/16 13:23:42;;;;;;;23.03;10.70;;;;;;;;;;5058562;28;20045;-62
2023/04/16 13:26:08;;;;;;;19.13;10.57;;;;;;;;;;5059772;28;20052;-61
2023/04/16 13:28:34;;;;;;;16.67;10.43;;;;;;;;;;5058256;28;20055;-61
2023/04/16 13:31:00;;;;;;;17.75;10.63;;;;;;;;;;5059708;28;20494;-61
2023/04/16 13:33:26;;;;;;;13.88;9.57;;;;;;;;;;5056977;28;20060;-61
2023/04/16 13:35:52;;;;;;;16.08;10.48;;;;;;;;;;5058214;28;20120;-61
2023/04/16 13:38:19;;;;;;;17.88;9.82;;;;;;;;;;5058106;28;20072;-61
2023/04/16 13:40:45;;;;;;;15.77;10.43;;;;;;;;;;5056695;28;20126;-61
2023/04/16 13:43:12;;;;;;;15.02;9.90;;;;;;;;;;5056418;28;20055;-61
2023/04/16 13:45:39;;;;;;;17.40;10.70;;;;;;;;;;5060312;28;20407;-61
2023/04/16 13:48:05;;;;;;;15.70;9.63;;;;;;;;;;5058016;28;20045;-61
2023/04/16 13:50:31;;;;;;;16.33;10.32;;;;;;;;;;5058478;28;20039;-61
2023/04/16 13:52:57;;;;;;;16.65;9.18;;;;;;;;;;5060153;28;20052;-62
2023/04/16 13:55:23;;;;;;;21.35;11.27;;;;;;;;;;5054555;28;20115;-61
2023/04/16 13:57:51;;;;;;;15.75;9.88;;;;;;;;;;5058915;28;20516;-61
2023/04/16 14:00:17;;;;;;;14.30;10.00;;;;;;;;;;5058860;28;20049;-61
2023/04/16 14:02:44;;;;;;;16.13;10.93;;;;;;;;;;5059475;28;20119;-61
2023/04/16 14:05:11;;;;;;;16.42;9.65;;;;;;;;;;5062245;28;20735;-61
2023/04/16 14:07:39;;;;;;;15.88;9.45;;;;;;;;;;5052421;28;20103;-61
2023/04/16 14:10:06;;;;;;;17.77;9.85;;;;;;;;;;5051661;28;20052;-61
2023/04/16 14:12:32;;;;;;;16.25;11.05;;;;;;;;;;5061011;28;20075;-61
2023/04/16 14:14:58;;;;;;;14.18;9.52;;;;;;;;;;5049143;28;20076;-61